KJAN METAR and TAF | Updated Today

KJAN METAR

Jackson-Medgar Wiley Evers International Airport

Observation time: 25 min. ago

KJAN 301754Z 21006KT 10SM FEW250 19/07 A3020 RMK AO2 SLP227 T01890072 10189 20017 58009

Need help? Read our tutorial on how to read METARs or read the parsed version below.

Jackson-Medgar Wiley Evers International Airport (KJAN) METAR

  • Weather conditions on Tue, 30 Nov 2021 17:54:00 +0000 (25 min. ago):
  • Present conditions: Dry
  • Clouds: A few at 7620 meters
  • Visibility: 16093 meters
  • Wind: 210 degrees at 6 knots
  • Temperature: 19 celsius
  • Dew point: 7 celsius
  • Pressure: 30.2 inHg
  • Remarks: AO2 SLP227 T01890072 10189 20017 58009


Useful to know...

KJAN TAF

Jackson-Medgar Wiley Evers International Airport

KJAN 301720Z 3018/0118 19007KT P6SM SCT250
Observation time: 59 min. ago
Need help? Read our tutorial on how to read TAFs or read the parsed version below.

Parsed version of TAF for Jackson-Medgar Wiley Evers International Airport (KJAN)

  • From 30 November at 18:00 UTC, to day 01 of the month at 18:00 UTC
  • Clouds: Scattered at 7620 meters
  • Wind: 190 degrees at 7

Airports near KJAN

KHKS Weather
Region: Jackson

Hawkins Field

Not found in our database
KMBO Weather
Region: Madison

Bruce Campbell Field

Not found in our database